Patriot — WDC2859 — position and weather

sailwx.info

Track history (hours):
 
Tides and Currents Weather Stations Pressure Air Temp Water Temp Dewpoint Dewpoint Depression Visibility Wind Speed Wind Dir Waves Ship Positions

Patriot

Owner: AMNAV Maritime Corporation, Oakland, CA. More information available from US FCC via Universal Licensing System and Coast Guard Vessel Documentation Center.

Last reported at 2017-Mar-26 06:33 UTC. Time now 2017-Mar-26 07:18 UTC.
Position N 37°49' W 122°19'.

Length 31 m; draft 4.6 m.

Type: Tug. MMSI: 366998680.

Date/timePositionNaut miles runAvg speedWind from/ knotsBaromVisibWave heightAir tempDewpointWater temp
2017-Mar-26 06:33N 37°49' W 122°19'0 0.0
2017-Mar-26 05:33N 37°49' W 122°19'0 0.0
2017-Mar-26 04:33N 37°49' W 122°19'0 0.0
2017-Mar-26 03:33N 37°49' W 122°19'0 0.0
2017-Mar-26 02:33N 37°49' W 122°19'0 0.0
2017-Mar-26 01:33N 37°49' W 122°19'0 0.0
2017-Mar-26 00:33N 37°49' W 122°19'0 0.0
2017-Mar-25 23:33N 37°49' W 122°19'0 0.0
2017-Mar-25 22:33N 37°49' W 122°19'0 0.0
2017-Mar-25 21:33N 37°49' W 122°19'0 0.0
2017-Mar-25 20:33N 37°49' W 122°19'0 0.0
2017-Mar-25 19:33N 37°49' W 122°19'0 0.0
2017-Mar-25 18:33N 37°49' W 122°19'0 0.0
2017-Mar-25 17:33N 37°49' W 122°19'0 0.0
2017-Mar-25 16:33N 37°49' W 122°19'0 0.0
2017-Mar-25 15:33N 37°49' W 122°19'0 0.0
2017-Mar-25 14:33N 37°49' W 122°19'2 1.6
2017-Mar-25 13:33N 37°48' W 122°19'1 1.2
2017-Mar-25 12:33N 37°48' W 122°17'4 4.0
2017-Mar-25 11:33N 37°48' W 122°22'3 3.2
2017-Mar-25 10:33N 37°49' W 122°19'0 0.0
2017-Mar-25 09:33N 37°49' W 122°19'0 0.0
2017-Mar-25 08:33N 37°49' W 122°19'0 0.0
2017-Mar-25 07:33N 37°49' W 122°19'0 0.0
2017-Mar-25 06:33N 37°49' W 122°19'0 0.0
2017-Mar-25 05:33N 37°49' W 122°19'0 0.0
2017-Mar-25 04:33N 37°49' W 122°19'0 0.0
2017-Mar-25 03:33N 37°49' W 122°19'0 0.0
2017-Mar-25 02:33N 37°49' W 122°19'1 1.0
2017-Mar-25 01:34N 37°49' W 122°20'2 2.0
2017-Mar-25 00:33N 37°48' W 122°22'3 2.9
2017-Mar-24 23:34N 37°49' W 122°19'0 0.0
2017-Mar-24 22:33N 37°49' W 122°19'0 0.0
2017-Mar-24 21:33N 37°49' W 122°19'0 0.0
2017-Mar-24 20:33N 37°49' W 122°19'0 0.0
2017-Mar-24 19:33N 37°49' W 122°19'0 0.0
2017-Mar-24 18:33N 37°49' W 122°19'0 0.0
2017-Mar-24 17:33N 37°49' W 122°19'0 0.0
2017-Mar-24 16:33N 37°49' W 122°19'0 0.0
2017-Mar-24 15:33N 37°49' W 122°19'0 0.0
2017-Mar-24 14:33N 37°49' W 122°19'0 0.0
2017-Mar-24 13:33N 37°49' W 122°19'0 0.0
2017-Mar-24 12:33N 37°49' W 122°19'0 0.0
2017-Mar-24 11:33N 37°49' W 122°19'0 0.0
2017-Mar-24 10:33N 37°49' W 122°19'0 0.0
2017-Mar-24 09:33N 37°49' W 122°19'0 0.0
2017-Mar-24 08:33N 37°49' W 122°19'0 0.0
2017-Mar-24 07:33N 37°49' W 122°19'0 0.0
2017-Mar-24 06:33N 37°49' W 122°19'0 0.0
2017-Mar-24 05:33N 37°49' W 122°19'0 0.0
2017-Mar-24 04:33N 37°49' W 122°19'0 0.0
2017-Mar-24 03:33N 37°49' W 122°19'0 0.0
2017-Mar-24 02:33N 37°49' W 122°19'0 0.0
2017-Mar-24 01:33N 37°49' W 122°19'0 0.0
2017-Mar-24 00:33N 37°49' W 122°19'0 0.0
2017-Mar-23 23:33N 37°49' W 122°19'0 0.0
2017-Mar-23 22:33N 37°49' W 122°19'0 0.0
2017-Mar-23 21:33N 37°49' W 122°19'0 0.0
2017-Mar-23 20:33N 37°49' W 122°19'0 0.0
2017-Mar-23 19:33N 37°49' W 122°19'0 0.0
2017-Mar-23 18:33N 37°49' W 122°19'0 0.0
2017-Mar-23 17:33N 37°49' W 122°19'0 0.0
2017-Mar-23 16:33N 37°49' W 122°19'0 0.0
2017-Mar-23 15:33N 37°49' W 122°19'0 0.0
2017-Mar-23 14:33N 37°49' W 122°19'0 0.0
2017-Mar-23 13:33N 37°49' W 122°19'0 0.0
2017-Mar-23 12:33N 37°49' W 122°19'0 0.0
2017-Mar-23 11:33N 37°49' W 122°19'0 0.0
2017-Mar-23 10:33N 37°49' W 122°19'0 0.0
2017-Mar-23 09:33N 37°49' W 122°19'0 0.0
2017-Mar-23 08:33N 37°49' W 122°19'0 0.0
2017-Mar-23 07:33N 37°49' W 122°19'0 0.0
2017-Mar-23 06:33N 37°49' W 122°19'0 0.0
2017-Mar-23 05:33N 37°49' W 122°19'0 0.0
2017-Mar-23 04:34N 37°49' W 122°19'0 0.0
2017-Mar-23 03:33N 37°49' W 122°19'0 0.0
2017-Mar-23 02:33N 37°49' W 122°19'2 1.8
2017-Mar-23 01:33N 37°48' W 122°20'1 1.2
2017-Mar-23 00:33N 37°48' W 122°19'2 1.6
2017-Mar-22 23:33N 37°49' W 122°19'0 0.0
2017-Mar-22 22:34N 37°49' W 122°19'0 0.0
2017-Mar-22 21:33N 37°49' W 122°19'0 0.0
2017-Mar-22 20:33N 37°49' W 122°19'0 0.0
2017-Mar-22 19:33N 37°49' W 122°19'0 0.0
2017-Mar-22 18:34N 37°49' W 122°19'0 0.0
2017-Mar-22 17:33N 37°49' W 122°19'0 0.0
2017-Mar-22 16:33N 37°49' W 122°19'0 0.0
2017-Mar-22 15:33N 37°49' W 122°19'0 0.0
2017-Mar-22 14:34N 37°49' W 122°19'0 0.0
2017-Mar-22 13:34N 37°49' W 122°19'2 1.6
2017-Mar-22 12:33N 37°48' W 122°19'1 0.8
2017-Mar-22 11:34N 37°48' W 122°18'3 3.0
2017-Mar-22 10:34N 37°48' W 122°21'1 1.4
2017-Mar-22 09:33N 37°49' W 122°20'1 1.0
2017-Mar-22 08:33N 37°49' W 122°19'0 0.0
2017-Mar-22 07:33N 37°49' W 122°19'0 0.0
2017-Mar-22 06:33N 37°49' W 122°19'0 0.0
2017-Mar-22 05:33N 37°49' W 122°19'0 0.0
2017-Mar-22 04:33N 37°49' W 122°19'0 0.0
2017-Mar-22 03:33N 37°49' W 122°19'0 0.0
2017-Mar-22 02:33N 37°49' W 122°19'4 4.5
2017-Mar-22 01:33N 37°52' W 122°24'4 4.2
2017-Mar-22 00:33N 37°49' W 122°20'1 0.9
2017-Mar-21 23:33N 37°49' W 122°19'0 0.0
2017-Mar-21 22:33N 37°49' W 122°19'0 0.0
2017-Mar-21 21:33N 37°49' W 122°19'0 0.0
2017-Mar-21 20:33N 37°49' W 122°19'0 0.0
2017-Mar-21 19:33N 37°49' W 122°19'0 0.0
2017-Mar-21 18:33N 37°49' W 122°19'0 0.0
2017-Mar-21 17:33N 37°49' W 122°19'0 0.0
2017-Mar-21 16:33N 37°49' W 122°19'0 0.0
2017-Mar-21 15:33N 37°49' W 122°19'0 0.0
2017-Mar-21 14:33N 37°49' W 122°19'0 0.0
2017-Mar-21 13:33N 37°49' W 122°19'1 1.0
2017-Mar-21 12:33N 37°49' W 122°20'6 6.4
2017-Mar-21 11:33N 37°55' W 122°22'1 0.6
2017-Mar-21 10:34N 37°54' W 122°22'6 5.5
2017-Mar-21 09:33N 37°49' W 122°19'0 0.0
2017-Mar-21 08:33N 37°49' W 122°19'0 0.0
2017-Mar-21 07:33N 37°49' W 122°19'0 0.0
2017-Mar-21 06:33N 37°49' W 122°19'0 0.0
2017-Mar-21 05:33N 37°49' W 122°19'0 0.0
2017-Mar-21 04:33N 37°49' W 122°19'0 0.0
2017-Mar-21 03:33N 37°49' W 122°19'0 0.0
2017-Mar-21 02:33N 37°49' W 122°19'0 0.0
2017-Mar-21 01:33N 37°49' W 122°19'0 0.0
2017-Mar-21 00:33N 37°49' W 122°19'0 0.0
2017-Mar-20 23:33N 37°49' W 122°19'0 0.0
2017-Mar-20 22:33N 37°49' W 122°19'0 0.0
2017-Mar-20 21:33N 37°49' W 122°19'0 0.0
2017-Mar-20 20:33N 37°49' W 122°19'0 0.0
2017-Mar-20 19:33N 37°49' W 122°19'0 0.0
2017-Mar-20 18:33N 37°49' W 122°19'0 0.0
2017-Mar-20 17:33N 37°49' W 122°19'0 0.0
2017-Mar-20 16:33N 37°49' W 122°19'0 0.0
2017-Mar-20 15:33N 37°49' W 122°19'0 0.0
2017-Mar-20 14:33N 37°49' W 122°19'0 0.0
2017-Mar-20 13:33N 37°49' W 122°19'0 0.0
2017-Mar-20 12:33N 37°49' W 122°19'0 0.0
2017-Mar-20 11:33N 37°49' W 122°19'0 0.0
2017-Mar-20 10:33N 37°49' W 122°19'0 0.0
2017-Mar-20 09:33N 37°49' W 122°19'0 0.0
2017-Mar-20 08:33N 37°49' W 122°19'0 0.0
2017-Mar-20 07:33N 37°49' W 122°19'6 5.7
2017-Mar-20 06:34N 37°53' W 122°24'3 2.6
2017-Mar-20 05:34N 37°54' W 122°22'2 2.0
2017-Mar-20 04:33N 37°54' W 122°24'1 0.8
2017-Mar-20 03:34N 37°54' W 122°23'0 0.0
2017-Mar-20 02:34N 37°54' W 122°23'0 0.0
2017-Mar-20 01:33N 37°55' W 122°23'0 0.0
2017-Mar-20 00:34N 37°54' W 122°23'1 1.2
2017-Mar-19 23:34N 37°54' W 122°22'4 3.9
2017-Mar-19 22:34N 37°51' W 122°23'3 3.3
2017-Mar-19 21:33N 37°49' W 122°19'0 0.0
2017-Mar-19 20:33N 37°49' W 122°19'0 0.0
2017-Mar-19 19:33N 37°49' W 122°19'0 0.0
2017-Mar-19 18:33N 37°49' W 122°19'5 5.4
2017-Mar-19 17:33N 37°53' W 122°24'3 2.9
2017-Mar-19 16:33N 37°55' W 122°22'0 0.2
2017-Mar-19 15:33N 37°55' W 122°22'1 0.4
2017-Mar-19 14:11N 37°54' W 122°22'3 4.7
2017-Mar-19 13:33N 37°55' W 122°25'8 7.7
2017-Mar-19 12:33N 37°49' W 122°21'2 1.6
2017-Mar-19 11:33N 37°49' W 122°19'0 0.0
2017-Mar-19 10:33N 37°49' W 122°19'0 0.0
2017-Mar-19 09:34N 37°49' W 122°19'0 0.0
2017-Mar-19 08:33N 37°49' W 122°19'0 0.0
2017-Mar-19 07:33N 37°49' W 122°19'0 0.0
2017-Mar-19 06:33N 37°49' W 122°19'0 0.0
2017-Mar-19 05:33N 37°49' W 122°19'0 0.0
2017-Mar-19 04:33N 37°49' W 122°19'0 0.0
2017-Mar-19 03:33N 37°49' W 122°19'0 0.0
2017-Mar-19 02:33N 37°49' W 122°19'0 0.0
2017-Mar-19 01:34N 37°49' W 122°19'0 0.0
2017-Mar-19 00:33N 37°49' W 122°19'0 0.0
2017-Mar-18 23:33N 37°49' W 122°19'0 0.0
2017-Mar-18 22:33N 37°49' W 122°19'0 0.0
2017-Mar-18 21:33N 37°49' W 122°19'0 0.0
2017-Mar-18 20:33N 37°49' W 122°19'0 0.0
2017-Mar-18 19:33N 37°49' W 122°19'0 0.0
2017-Mar-18 18:33N 37°49' W 122°19'0 0.0
2017-Mar-18 17:33N 37°49' W 122°19'0 0.0
2017-Mar-18 16:33N 37°49' W 122°19'0 0.0
2017-Mar-18 15:33N 37°49' W 122°19'2 1.9
2017-Mar-18 14:33N 37°47' W 122°18'0 0.3
2017-Mar-18 13:33N 37°48' W 122°18'0 0.3
2017-Mar-18 12:33N 37°48' W 122°19'2 1.5
2017-Mar-18 11:33N 37°48' W 122°21'2 1.8
2017-Mar-18 10:33N 37°49' W 122°19'0 0.0
2017-Mar-18 09:33N 37°49' W 122°19'0 0.0
2017-Mar-18 08:33N 37°49' W 122°19'0 0.0
2017-Mar-18 07:33N 37°49' W 122°19'0 0.0
2017-Mar-18 06:33N 37°49' W 122°19'0 0.0
2017-Mar-18 05:33N 37°49' W 122°19'0 0.0
2017-Mar-18 04:33N 37°49' W 122°19'0 0.0
2017-Mar-18 03:33N 37°49' W 122°19'0 0.0
2017-Mar-18 02:33N 37°49' W 122°19'0 0.0
2017-Mar-18 01:33N 37°49' W 122°19'0 0.0
2017-Mar-18 00:33N 37°49' W 122°19'0 0.0
2017-Mar-17 23:33N 37°49' W 122°19'0 0.0
2017-Mar-17 22:33N 37°49' W 122°19'0 0.0
2017-Mar-17 21:33N 37°49' W 122°19'0 0.0
2017-Mar-17 20:33N 37°49' W 122°19'0 0.0
2017-Mar-17 19:33N 37°49' W 122°19'2 1.8
2017-Mar-17 18:33N 37°48' W 122°18'1 0.7
2017-Mar-17 17:33N 37°48' W 122°17'0 0.0
2017-Mar-17 16:33N 37°48' W 122°17'0 0.0
2017-Mar-17 15:33N 37°48' W 122°17'0 0.0
2017-Mar-17 14:33N 37°48' W 122°17'1 1.4
2017-Mar-17 13:33N 37°48' W 122°19'1 1.0
2017-Mar-17 12:33N 37°48' W 122°18'3 3.4
2017-Mar-17 11:33N 37°48' W 122°22'3 2.9
2017-Mar-17 10:33N 37°49' W 122°19'0 0.0
2017-Mar-17 09:33N 37°49' W 122°19'0 0.0
2017-Mar-17 08:33N 37°49' W 122°19'0 0.0
2017-Mar-17 07:33N 37°49' W 122°19'0 0.0
2017-Mar-17 06:33N 37°49' W 122°19'0 0.0
2017-Mar-17 05:33N 37°49' W 122°19'0 0.0
2017-Mar-17 04:33N 37°49' W 122°19'0 0.0
2017-Mar-17 03:33N 37°49' W 122°19'0 0.0
2017-Mar-17 02:33N 37°49' W 122°19'0 0.0
2017-Mar-17 01:33N 37°49' W 122°19'0 0.0
2017-Mar-17 00:33N 37°49' W 122°19'2 1.7
2017-Mar-16 23:33N 37°48' W 122°19'0 0.1
2017-Mar-16 22:33N 37°48' W 122°19'4 3.7
2017-Mar-16 21:33N 37°44' W 122°20'9 9.4
2017-Mar-16 20:33N 37°36' W 122°15'5 5.3
2017-Mar-16 19:33N 37°31' W 122°12'0 0.4
2017-Mar-16 18:33N 37°31' W 122°13'6 5.7
2017-Mar-16 17:33N 37°36' W 122°16'1010.0
2017-Mar-16 16:34N 37°45' W 122°21'5 4.6
2017-Mar-16 15:33N 37°49' W 122°19'0 0.0
2017-Mar-16 14:33N 37°49' W 122°19'0 0.0
2017-Mar-16 13:33N 37°49' W 122°19'0 0.0
2017-Mar-16 12:33N 37°49' W 122°19'0 0.0
2017-Mar-16 11:34N 37°49' W 122°19'0 0.0
2017-Mar-16 10:33N 37°49' W 122°19'0 0.0
2017-Mar-16 09:33N 37°49' W 122°19'0 0.0
2017-Mar-16 08:33N 37°49' W 122°19'0 0.0
2017-Mar-16 07:33N 37°49' W 122°19'0 0.0
2017-Mar-16 06:33N 37°49' W 122°19'  
Track history (hours):
 
Tides and Currents Weather Stations Pressure Air Temp Water Temp Dewpoint Dewpoint Depression Visibility Wind Speed Wind Dir Waves Ship Positions

Patriot

Owner: AMNAV Maritime Corporation, Oakland, CA. More information available from US FCC via Universal Licensing System and Coast Guard Vessel Documentation Center.

Last reported at 2017-Mar-26 06:33 UTC. Time now 2017-Mar-26 07:18 UTC.
Position N 37°49' W 122°19'.

Length 31 m; draft 4.6 m.

Type: Tug. MMSI: 366998680.

Date/timePositionNaut miles runAvg speedWind from/ knotsBaromVisibWave heightAir tempDewpointWater temp
2017-Mar-26 06:33N 37°49' W 122°19'0 0.0
2017-Mar-26 05:33N 37°49' W 122°19'0 0.0
2017-Mar-26 04:33N 37°49' W 122°19'0 0.0
2017-Mar-26 03:33N 37°49' W 122°19'0 0.0
2017-Mar-26 02:33N 37°49' W 122°19'0 0.0
2017-Mar-26 01:33N 37°49' W 122°19'0 0.0
2017-Mar-26 00:33N 37°49' W 122°19'0 0.0
2017-Mar-25 23:33N 37°49' W 122°19'0 0.0
2017-Mar-25 22:33N 37°49' W 122°19'0 0.0
2017-Mar-25 21:33N 37°49' W 122°19'0 0.0
2017-Mar-25 20:33N 37°49' W 122°19'0 0.0
2017-Mar-25 19:33N 37°49' W 122°19'0 0.0
2017-Mar-25 18:33N 37°49' W 122°19'0 0.0
2017-Mar-25 17:33N 37°49' W 122°19'0 0.0
2017-Mar-25 16:33N 37°49' W 122°19'0 0.0
2017-Mar-25 15:33N 37°49' W 122°19'0 0.0
2017-Mar-25 14:33N 37°49' W 122°19'2 1.6
2017-Mar-25 13:33N 37°48' W 122°19'1 1.2
2017-Mar-25 12:33N 37°48' W 122°17'4 4.0
2017-Mar-25 11:33N 37°48' W 122°22'3 3.2
2017-Mar-25 10:33N 37°49' W 122°19'0 0.0
2017-Mar-25 09:33N 37°49' W 122°19'0 0.0
2017-Mar-25 08:33N 37°49' W 122°19'0 0.0
2017-Mar-25 07:33N 37°49' W 122°19'0 0.0
2017-Mar-25 06:33N 37°49' W 122°19'0 0.0
2017-Mar-25 05:33N 37°49' W 122°19'0 0.0
2017-Mar-25 04:33N 37°49' W 122°19'0 0.0
2017-Mar-25 03:33N 37°49' W 122°19'0 0.0
2017-Mar-25 02:33N 37°49' W 122°19'1 1.0
2017-Mar-25 01:34N 37°49' W 122°20'2 2.0
2017-Mar-25 00:33N 37°48' W 122°22'3 2.9
2017-Mar-24 23:34N 37°49' W 122°19'0 0.0
2017-Mar-24 22:33N 37°49' W 122°19'0 0.0
2017-Mar-24 21:33N 37°49' W 122°19'0 0.0
2017-Mar-24 20:33N 37°49' W 122°19'0 0.0
2017-Mar-24 19:33N 37°49' W 122°19'0 0.0
2017-Mar-24 18:33N 37°49' W 122°19'0 0.0
2017-Mar-24 17:33N 37°49' W 122°19'0 0.0
2017-Mar-24 16:33N 37°49' W 122°19'0 0.0
2017-Mar-24 15:33N 37°49' W 122°19'0 0.0
2017-Mar-24 14:33N 37°49' W 122°19'0 0.0
2017-Mar-24 13:33N 37°49' W 122°19'0 0.0
2017-Mar-24 12:33N 37°49' W 122°19'0 0.0
2017-Mar-24 11:33N 37°49' W 122°19'0 0.0
2017-Mar-24 10:33N 37°49' W 122°19'0 0.0
2017-Mar-24 09:33N 37°49' W 122°19'0 0.0
2017-Mar-24 08:33N 37°49' W 122°19'0 0.0
2017-Mar-24 07:33N 37°49' W 122°19'0 0.0
2017-Mar-24 06:33N 37°49' W 122°19'0 0.0
2017-Mar-24 05:33N 37°49' W 122°19'0 0.0
2017-Mar-24 04:33N 37°49' W 122°19'0 0.0
2017-Mar-24 03:33N 37°49' W 122°19'0 0.0
2017-Mar-24 02:33N 37°49' W 122°19'0 0.0
2017-Mar-24 01:33N 37°49' W 122°19'0 0.0
2017-Mar-24 00:33N 37°49' W 122°19'0 0.0
2017-Mar-23 23:33N 37°49' W 122°19'0 0.0
2017-Mar-23 22:33N 37°49' W 122°19'0 0.0
2017-Mar-23 21:33N 37°49' W 122°19'0 0.0
2017-Mar-23 20:33N 37°49' W 122°19'0 0.0
2017-Mar-23 19:33N 37°49' W 122°19'0 0.0
2017-Mar-23 18:33N 37°49' W 122°19'0 0.0
2017-Mar-23 17:33N 37°49' W 122°19'0 0.0
2017-Mar-23 16:33N 37°49' W 122°19'0 0.0
2017-Mar-23 15:33N 37°49' W 122°19'0 0.0
2017-Mar-23 14:33N 37°49' W 122°19'0 0.0
2017-Mar-23 13:33N 37°49' W 122°19'0 0.0
2017-Mar-23 12:33N 37°49' W 122°19'0 0.0
2017-Mar-23 11:33N 37°49' W 122°19'0 0.0
2017-Mar-23 10:33N 37°49' W 122°19'0 0.0
2017-Mar-23 09:33N 37°49' W 122°19'0 0.0
2017-Mar-23 08:33N 37°49' W 122°19'0 0.0
2017-Mar-23 07:33N 37°49' W 122°19'0 0.0
2017-Mar-23 06:33N 37°49' W 122°19'0 0.0
2017-Mar-23 05:33N 37°49' W 122°19'0 0.0
2017-Mar-23 04:34N 37°49' W 122°19'0 0.0
2017-Mar-23 03:33N 37°49' W 122°19'0 0.0
2017-Mar-23 02:33N 37°49' W 122°19'2 1.8
2017-Mar-23 01:33N 37°48' W 122°20'1 1.2
2017-Mar-23 00:33N 37°48' W 122°19'2 1.6
2017-Mar-22 23:33N 37°49' W 122°19'0 0.0
2017-Mar-22 22:34N 37°49' W 122°19'0 0.0
2017-Mar-22 21:33N 37°49' W 122°19'0 0.0
2017-Mar-22 20:33N 37°49' W 122°19'0 0.0
2017-Mar-22 19:33N 37°49' W 122°19'0 0.0
2017-Mar-22 18:34N 37°49' W 122°19'0 0.0
2017-Mar-22 17:33N 37°49' W 122°19'0 0.0
2017-Mar-22 16:33N 37°49' W 122°19'0 0.0
2017-Mar-22 15:33N 37°49' W 122°19'0 0.0
2017-Mar-22 14:34N 37°49' W 122°19'0 0.0
2017-Mar-22 13:34N 37°49' W 122°19'2 1.6
2017-Mar-22 12:33N 37°48' W 122°19'1 0.8
2017-Mar-22 11:34N 37°48' W 122°18'3 3.0
2017-Mar-22 10:34N 37°48' W 122°21'1 1.4
2017-Mar-22 09:33N 37°49' W 122°20'1 1.0
2017-Mar-22 08:33N 37°49' W 122°19'0 0.0
2017-Mar-22 07:33N 37°49' W 122°19'0 0.0
2017-Mar-22 06:33N 37°49' W 122°19'0 0.0
2017-Mar-22 05:33N 37°49' W 122°19'0 0.0
2017-Mar-22 04:33N 37°49' W 122°19'0 0.0
2017-Mar-22 03:33N 37°49' W 122°19'0 0.0
2017-Mar-22 02:33N 37°49' W 122°19'4 4.5
2017-Mar-22 01:33N 37°52' W 122°24'4 4.2
2017-Mar-22 00:33N 37°49' W 122°20'1 0.9
2017-Mar-21 23:33N 37°49' W 122°19'0 0.0
2017-Mar-21 22:33N 37°49' W 122°19'0 0.0
2017-Mar-21 21:33N 37°49' W 122°19'0 0.0
2017-Mar-21 20:33N 37°49' W 122°19'0 0.0
2017-Mar-21 19:33N 37°49' W 122°19'0 0.0
2017-Mar-21 18:33N 37°49' W 122°19'0 0.0
2017-Mar-21 17:33N 37°49' W 122°19'0 0.0
2017-Mar-21 16:33N 37°49' W 122°19'0 0.0
2017-Mar-21 15:33N 37°49' W 122°19'0 0.0
2017-Mar-21 14:33N 37°49' W 122°19'0 0.0
2017-Mar-21 13:33N 37°49' W 122°19'1 1.0
2017-Mar-21 12:33N 37°49' W 122°20'6 6.4
2017-Mar-21 11:33N 37°55' W 122°22'1 0.6
2017-Mar-21 10:34N 37°54' W 122°22'6 5.5
2017-Mar-21 09:33N 37°49' W 122°19'0 0.0
2017-Mar-21 08:33N 37°49' W 122°19'0 0.0
2017-Mar-21 07:33N 37°49' W 122°19'0 0.0
2017-Mar-21 06:33N 37°49' W 122°19'0 0.0
2017-Mar-21 05:33N 37°49' W 122°19'0 0.0
2017-Mar-21 04:33N 37°49' W 122°19'0 0.0
2017-Mar-21 03:33N 37°49' W 122°19'0 0.0
2017-Mar-21 02:33N 37°49' W 122°19'0 0.0
2017-Mar-21 01:33N 37°49' W 122°19'0 0.0
2017-Mar-21 00:33N 37°49' W 122°19'0 0.0
2017-Mar-20 23:33N 37°49' W 122°19'0 0.0
2017-Mar-20 22:33N 37°49' W 122°19'0 0.0
2017-Mar-20 21:33N 37°49' W 122°19'0 0.0
2017-Mar-20 20:33N 37°49' W 122°19'0 0.0
2017-Mar-20 19:33N 37°49' W 122°19'0 0.0
2017-Mar-20 18:33N 37°49' W 122°19'0 0.0
2017-Mar-20 17:33N 37°49' W 122°19'0 0.0
2017-Mar-20 16:33N 37°49' W 122°19'0 0.0
2017-Mar-20 15:33N 37°49' W 122°19'0 0.0
2017-Mar-20 14:33N 37°49' W 122°19'0 0.0
2017-Mar-20 13:33N 37°49' W 122°19'0 0.0
2017-Mar-20 12:33N 37°49' W 122°19'0 0.0
2017-Mar-20 11:33N 37°49' W 122°19'0 0.0
2017-Mar-20 10:33N 37°49' W 122°19'0 0.0
2017-Mar-20 09:33N 37°49' W 122°19'0 0.0
2017-Mar-20 08:33N 37°49' W 122°19'0 0.0
2017-Mar-20 07:33N 37°49' W 122°19'6 5.7
2017-Mar-20 06:34N 37°53' W 122°24'3 2.6
2017-Mar-20 05:34N 37°54' W 122°22'2 2.0
2017-Mar-20 04:33N 37°54' W 122°24'1 0.8
2017-Mar-20 03:34N 37°54' W 122°23'0 0.0
2017-Mar-20 02:34N 37°54' W 122°23'0 0.0
2017-Mar-20 01:33N 37°55' W 122°23'0 0.0
2017-Mar-20 00:34N 37°54' W 122°23'1 1.2
2017-Mar-19 23:34N 37°54' W 122°22'4 3.9
2017-Mar-19 22:34N 37°51' W 122°23'3 3.3
2017-Mar-19 21:33N 37°49' W 122°19'0 0.0
2017-Mar-19 20:33N 37°49' W 122°19'0 0.0
2017-Mar-19 19:33N 37°49' W 122°19'0 0.0
2017-Mar-19 18:33N 37°49' W 122°19'5 5.4
2017-Mar-19 17:33N 37°53' W 122°24'3 2.9
2017-Mar-19 16:33N 37°55' W 122°22'0 0.2
2017-Mar-19 15:33N 37°55' W 122°22'1 0.4
2017-Mar-19 14:11N 37°54' W 122°22'3 4.7
2017-Mar-19 13:33N 37°55' W 122°25'8 7.7
2017-Mar-19 12:33N 37°49' W 122°21'2 1.6
2017-Mar-19 11:33N 37°49' W 122°19'0 0.0
2017-Mar-19 10:33N 37°49' W 122°19'0 0.0
2017-Mar-19 09:34N 37°49' W 122°19'0 0.0
2017-Mar-19 08:33N 37°49' W 122°19'0 0.0
2017-Mar-19 07:33N 37°49' W 122°19'0 0.0
2017-Mar-19 06:33N 37°49' W 122°19'0 0.0
2017-Mar-19 05:33N 37°49' W 122°19'0 0.0
2017-Mar-19 04:33N 37°49' W 122°19'0 0.0
2017-Mar-19 03:33N 37°49' W 122°19'0 0.0
2017-Mar-19 02:33N 37°49' W 122°19'0 0.0
2017-Mar-19 01:34N 37°49' W 122°19'0 0.0
2017-Mar-19 00:33N 37°49' W 122°19'0 0.0
2017-Mar-18 23:33N 37°49' W 122°19'0 0.0
2017-Mar-18 22:33N 37°49' W 122°19'0 0.0
2017-Mar-18 21:33N 37°49' W 122°19'0 0.0
2017-Mar-18 20:33N 37°49' W 122°19'0 0.0
2017-Mar-18 19:33N 37°49' W 122°19'0 0.0
2017-Mar-18 18:33N 37°49' W 122°19'0 0.0
2017-Mar-18 17:33N 37°49' W 122°19'0 0.0
2017-Mar-18 16:33N 37°49' W 122°19'0 0.0
2017-Mar-18 15:33N 37°49' W 122°19'2 1.9
2017-Mar-18 14:33N 37°47' W 122°18'0 0.3
2017-Mar-18 13:33N 37°48' W 122°18'0 0.3
2017-Mar-18 12:33N 37°48' W 122°19'2 1.5
2017-Mar-18 11:33N 37°48' W 122°21'2 1.8
2017-Mar-18 10:33N 37°49' W 122°19'0 0.0
2017-Mar-18 09:33N 37°49' W 122°19'0 0.0
2017-Mar-18 08:33N 37°49' W 122°19'0 0.0
2017-Mar-18 07:33N 37°49' W 122°19'0 0.0
2017-Mar-18 06:33N 37°49' W 122°19'0 0.0
2017-Mar-18 05:33N 37°49' W 122°19'0 0.0
2017-Mar-18 04:33N 37°49' W 122°19'0 0.0
2017-Mar-18 03:33N 37°49' W 122°19'0 0.0
2017-Mar-18 02:33N 37°49' W 122°19'0 0.0
2017-Mar-18 01:33N 37°49' W 122°19'0 0.0
2017-Mar-18 00:33N 37°49' W 122°19'0 0.0
2017-Mar-17 23:33N 37°49' W 122°19'0 0.0
2017-Mar-17 22:33N 37°49' W 122°19'0 0.0
2017-Mar-17 21:33N 37°49' W 122°19'0 0.0
2017-Mar-17 20:33N 37°49' W 122°19'0 0.0
2017-Mar-17 19:33N 37°49' W 122°19'2 1.8
2017-Mar-17 18:33N 37°48' W 122°18'1 0.7
2017-Mar-17 17:33N 37°48' W 122°17'0 0.0
2017-Mar-17 16:33N 37°48' W 122°17'0 0.0
2017-Mar-17 15:33N 37°48' W 122°17'0 0.0
2017-Mar-17 14:33N 37°48' W 122°17'1 1.4
2017-Mar-17 13:33N 37°48' W 122°19'1 1.0
2017-Mar-17 12:33N 37°48' W 122°18'3 3.4
2017-Mar-17 11:33N 37°48' W 122°22'3 2.9
2017-Mar-17 10:33N 37°49' W 122°19'0 0.0
2017-Mar-17 09:33N 37°49' W 122°19'0 0.0
2017-Mar-17 08:33N 37°49' W 122°19'0 0.0
2017-Mar-17 07:33N 37°49' W 122°19'0 0.0
2017-Mar-17 06:33N 37°49' W 122°19'0 0.0
2017-Mar-17 05:33N 37°49' W 122°19'0 0.0
2017-Mar-17 04:33N 37°49' W 122°19'0 0.0
2017-Mar-17 03:33N 37°49' W 122°19'0 0.0
2017-Mar-17 02:33N 37°49' W 122°19'0 0.0
2017-Mar-17 01:33N 37°49' W 122°19'0 0.0
2017-Mar-17 00:33N 37°49' W 122°19'2 1.7
2017-Mar-16 23:33N 37°48' W 122°19'0 0.1
2017-Mar-16 22:33N 37°48' W 122°19'4 3.7
2017-Mar-16 21:33N 37°44' W 122°20'9 9.4
2017-Mar-16 20:33N 37°36' W 122°15'5 5.3
2017-Mar-16 19:33N 37°31' W 122°12'0 0.4
2017-Mar-16 18:33N 37°31' W 122°13'6 5.7
2017-Mar-16 17:33N 37°36' W 122°16'1010.0
2017-Mar-16 16:34N 37°45' W 122°21'5 4.6
2017-Mar-16 15:33N 37°49' W 122°19'0 0.0
2017-Mar-16 14:33N 37°49' W 122°19'0 0.0
2017-Mar-16 13:33N 37°49' W 122°19'0 0.0
2017-Mar-16 12:33N 37°49' W 122°19'0 0.0
2017-Mar-16 11:34N 37°49' W 122°19'0 0.0
2017-Mar-16 10:33N 37°49' W 122°19'0 0.0
2017-Mar-16 09:33N 37°49' W 122°19'0 0.0
2017-Mar-16 08:33N 37°49' W 122°19'0 0.0
2017-Mar-16 07:33N 37°49' W 122°19'0 0.0
2017-Mar-16 06:33N 37°49' W 122°19'  

Dump ship's entire track history